Nearby METAR Reports

 

EGUW - Wattisham Raf, United Kingdom
Distance from station: SW 12mi, 19km
Updated: 24/04/2019 18:50
Mostly cloudy
Mostly cloudy
 Wind from SSW
Wind: SSW 12 mph , 19 km/h
Temperature: 13°C
Dew Point: 7°C
Humidity: 67%
Barometer: 996 hPa
Clouds: Mostly cloudy
Visibility: 6 miles , 10 km
Cloud details: Few Clouds 914 m
Mostly cloudy 5182 m
2019/04/24 17:50 EGUW 241750Z 20010KT 9999 FEW030 BKN170 13/07 Q0996 BLU NOSIG
EGUL - Lakenheath Raf, United Kingdom
Distance from station: WNW 29mi, 47km
Updated: 24/04/2019 18:56
Partly cloudy
Partly cloudy
 Wind from SSW
Wind: SSW 14 mph , 22 km/h
Temperature: 15°C
Dew Point: 7°C
Humidity: 59%
Barometer: 995.3 hPa
Clouds: Partly cloudy
Visibility: 6 miles , 10 km
Cloud details: Partly cloudy 1067 m
2019/04/24 17:56 EGUL 241756Z 21012KT 9999 SCT035 15/07 A2939 RMK SLPNO WND DATA ESTMD ALSTG ESTMD
 
EGUN - Mildenhall Raf, United Kingdom
Distance from station: WNW 32mi, 51km
Updated: 24/04/2019 18:56
Few Clouds
Few Clouds
 Wind from SSW
Wind: SSW 14 mph , 22 km/h
Temperature: 15°C
Dew Point: 7°C
Humidity: 59%
Barometer: 995.3 hPa
Clouds: Few Clouds
Visibility: 6 miles , 10 km
Cloud details: Few Clouds 1067 m
2019/04/24 17:56 EGUN 241756Z AUTO 21012KT 9999 FEW035 15/07 A2939 RMK AO2 PK WND 19028/1658 SLP956 T01460069 10211 20146 52030 $
EGSH - Norwich Wea Cntr, United Kingdom
Distance from station: N 32mi, 52km
Updated: 24/04/2019 19:20
Nearby showers, Few clouds
Nearby showers, Few clouds
 Wind from SSW
Wind: SSW 15 mph , 24 km/h
Temperature: 15°C
Dew Point: 9°C
Humidity: 68%
Barometer: 996 hPa
Summary: Nearby Showers
Clouds: Few Clouds
Visibility: 6 miles , 10 km
Cloud details: Few Clouds 762 m
2019/04/24 18:20 EGSH 241820Z 20013KT 160V230 9999 VCSH FEW025 15/09 Q0996 NOSIG
 
EGYM - Marham Raf, United Kingdom
Distance from station: NW 39mi, 62km
Updated: 24/04/2019 18:50
Mostly cloudy
Mostly cloudy
 Wind from SSW
Wind: SSW 17 mph , 28 km/h
Temperature: 15°C
Dew Point: 8°C
Humidity: 63%
Barometer: 995 hPa
Clouds: Mostly cloudy
Visibility: 6 miles , 10 km
Cloud details: Few Clouds 975 m
Mostly cloudy 2134 m
2019/04/24 17:50 EGYM 241750Z 20015KT 9999 FEW032 BKN070 15/08 Q0995 BLU
EGSC - Cambridge, United Kingdom
Distance from station: W 43mi, 69km
Updated: 24/04/2019 17:50
NOT Current
Partly cloudy
Partly cloudy
 Wind from SSW
Wind: SSW 17 mph , 28 km/h
Temperature: 15°C
Dew Point: 7°C
Humidity: 59%
Barometer: 995 hPa
Clouds: Partly cloudy
Visibility: 6 miles , 10 km
Cloud details: Partly cloudy 975 m
Partly cloudy 1219 m
2019/04/24 16:50 EGSC 241650Z 20015KT 170V230 9999 SCT032 SCT040 15/07 Q0995
 
EGSS - Stansted Airport, United Kingdom
Distance from station: WSW 47mi, 76km
Updated: 24/04/2019 19:20
Partly cloudy
Partly cloudy
 Wind from SSW
Wind: SSW 14 mph , 22 km/h
Temperature: 12°C
Dew Point: 5°C
Humidity: 63%
Barometer: 996 hPa
Clouds: Partly cloudy
Visibility: 6 miles , 10 km
Cloud details: Partly cloudy 1067 m
2019/04/24 18:20 EGSS 241820Z AUTO 20012KT 9999 SCT035 12/05 Q0996
EGMC - Southend-On-Sea, United Kingdom
Distance from station: SSW 50mi, 80km
Updated: 24/04/2019 19:20
Few Clouds
Few Clouds
 Wind from SSW
Wind: SSW 13 mph , 20 km/h
Temperature: 13°C
Dew Point: 6°C
Humidity: 63%
Barometer: 997 hPa
Clouds: Few Clouds
Visibility: 6 miles , 10 km
Cloud details: Few Clouds 853 m
2019/04/24 18:20 EGMC 241820Z 20011KT 9999 FEW028 13/06 Q0997